Time;durP1;ratioP1;P1;durP2;ratioP2;P2;SDS_P1;SDS_P2;PMS_P1;PMS_P2;Temp;Humidity;BMP_temperature;BMP_pressure;BME280_temperature;BME280_humidity;BME280_pressure;Samples;Min_cycle;Max_cycle;Signal;HPM_P1;HPM_P2
2023/03/15 00:01:57;;;;;;;;;;;16.40;57.90;;;;;;10422295;28;88968;-65
2023/03/15 00:06:58;;;;;;;;;;;16.30;57.90;;;;;;10423321;28;90155;-65
2023/03/15 00:12:01;;;;;;;;;;;16.30;57.90;;;;;;10422017;28;89573;-65
2023/03/15 00:17:02;;;;;;;;;;;16.30;57.90;;;;;;10423704;28;89359;-65
2023/03/15 00:22:04;;;;;;;;;;;16.30;57.90;;;;;;10421279;28;89986;-65
2023/03/15 00:27:06;;;;;;;;;;;16.30;57.90;;;;;;10421983;28;88219;-65
2023/03/15 00:32:07;;;;;;;;;;;16.30;57.90;;;;;;10421698;28;90533;-65
2023/03/15 00:37:10;;;;;;;;;;;16.30;57.90;;;;;;10421709;28;88428;-65
2023/03/15 00:42:15;;;;;;;;;;;16.20;57.80;;;;;;10421251;28;92330;-65
2023/03/15 00:47:17;;;;;;;;;;;16.30;57.90;;;;;;10420824;28;89921;-65
2023/03/15 00:52:20;;;;;;;;;;;16.20;57.80;;;;;;10420031;28;90073;-65
2023/03/15 00:57:22;;;;;;;;;;;16.20;57.90;;;;;;10436844;27;89082;-65
2023/03/15 01:02:24;;;;;;;;;;;16.20;58.80;;;;;;10421320;28;89097;-65
2023/03/15 01:07:26;;;;;;;;;;;16.20;57.80;;;;;;10422182;28;89429;-65
2023/03/15 01:12:28;;;;;;;;;;;16.10;57.80;;;;;;10421708;28;90111;-66
2023/03/15 01:17:30;;;;;;;;;;;16.10;57.90;;;;;;10420691;28;88952;-65
2023/03/15 01:22:32;;;;;;;;;;;16.10;57.80;;;;;;10401599;28;90952;-65
2023/03/15 01:27:34;;;;;;;;;;;16.10;57.80;;;;;;10420389;28;89177;-65
2023/03/15 01:32:36;;;;;;;;;;;16.10;57.80;;;;;;10420696;28;90183;-66
2023/03/15 01:37:37;;;;;;;;;;;16.10;57.80;;;;;;10435655;27;89601;-65
2023/03/15 01:43:18;;;;;;;;;;;16.10;57.80;;;;;;10419741;28;90025;-65
2023/03/15 01:48:21;;;;;;;;;;;16.10;57.80;;;;;;10289047;28;89814;-65
2023/03/15 01:53:24;;;;;;;;;;;16.00;57.70;;;;;;10390448;28;89440;-65
2023/03/15 01:58:26;;;;;;;;;;;16.00;57.70;;;;;;10419808;28;88222;-65
2023/03/15 02:03:31;;;;;;;;;;;16.00;57.70;;;;;;10418872;28;89389;-65
2023/03/15 02:08:35;;;;;;;;;;;16.00;57.70;;;;;;10417867;28;88814;-65
2023/03/15 02:13:37;;;;;;;;;;;16.00;57.70;;;;;;10418344;28;89579;-65
2023/03/15 02:18:38;;;;;;;;;;;15.90;57.70;;;;;;10417870;28;88953;-65
2023/03/15 02:23:41;;;;;;;;;;;15.90;57.70;;;;;;10401214;28;89054;-65
2023/03/15 02:28:43;;;;;;;;;;;15.90;57.70;;;;;;10418297;28;89009;-65
2023/03/15 02:33:48;;;;;;;;;;;15.90;57.70;;;;;;10399979;28;88092;-65
2023/03/15 02:38:50;;;;;;;;;;;15.90;57.70;;;;;;10417839;28;88981;-65
2023/03/15 02:43:53;;;;;;;;;;;15.90;57.70;;;;;;10418253;28;89191;-65
2023/03/15 02:48:54;;;;;;;;;;;15.90;57.50;;;;;;10417980;28;89177;-65
2023/03/15 02:53:56;;;;;;;;;;;15.90;57.60;;;;;;10417822;28;89836;-65
2023/03/15 02:58:58;;;;;;;;;;;15.90;57.50;;;;;;10417137;28;89025;-65
2023/03/15 03:03:59;;;;;;;;;;;15.90;57.60;;;;;;10415977;28;89777;-66
2023/03/15 03:09:01;;;;;;;;;;;15.90;57.60;;;;;;10417224;28;90182;-65
2023/03/15 03:14:04;;;;;;;;;;;15.90;57.60;;;;;;10416825;28;88968;-65
2023/03/15 03:19:05;;;;;;;;;;;15.90;57.50;;;;;;10416457;28;89203;-65
2023/03/15 03:24:07;;;;;;;;;;;15.90;57.60;;;;;;10417189;28;89043;-65
2023/03/15 03:29:09;;;;;;;;;;;15.90;57.40;;;;;;10416677;28;90038;-66
2023/03/15 03:34:14;;;;;;;;;;;15.90;57.30;;;;;;10416855;28;90025;-65
2023/03/15 03:39:16;;;;;;;;;;;15.90;57.20;;;;;;10416944;28;89495;-65
2023/03/15 03:44:17;;;;;;;;;;;15.90;57.10;;;;;;10416381;28;90044;-65
2023/03/15 03:49:19;;;;;;;;;;;15.90;57.00;;;;;;10415615;28;89104;-66
2023/03/15 03:54:21;;;;;;;;;;;15.90;57.00;;;;;;10414190;28;89692;-65
2023/03/15 03:59:23;;;;;;;;;;;15.90;57.00;;;;;;10416423;28;89977;-65
2023/03/15 04:04:25;;;;;;;;;;;15.90;57.00;;;;;;10414581;28;90301;-65
2023/03/15 04:09:27;;;;;;;;;;;15.90;57.10;;;;;;10415446;28;90274;-65
2023/03/15 04:14:28;;;;;;;;;;;15.80;57.10;;;;;;10415100;28;88441;-65
2023/03/15 04:19:30;;;;;;;;;;;15.80;57.10;;;;;;10416617;28;90188;-65
2023/03/15 04:24:33;;;;;;;;;;;15.80;57.10;;;;;;10414471;28;88091;-65
2023/03/15 04:29:34;;;;;;;;;;;15.80;57.00;;;;;;10416924;28;89131;-65
2023/03/15 04:34:37;;;;;;;;;;;15.80;57.00;;;;;;10414822;28;89401;-65
2023/03/15 04:39:41;;;;;;;;;;;15.80;57.00;;;;;;10416689;27;90197;-65
2023/03/15 04:44:43;;;;;;;;;;;15.80;57.00;;;;;;10420160;28;90337;-65
2023/03/15 06:07:52;;;;;;;;;;;16.30;55.90;;;;;;10376677;28;89151;-69
2023/03/15 06:12:54;;;;;;;;;;;16.50;55.60;;;;;;10376541;28;89125;-71
2023/03/15 06:17:56;;;;;;;;;;;16.50;55.40;;;;;;10376798;28;90034;-70
2023/03/15 06:22:57;;;;;;;;;;;16.60;56.50;;;;;;10376782;28;88856;-70
2023/03/15 06:28:00;;;;;;;;;;;16.60;56.70;;;;;;10377661;28;88937;-72
2023/03/15 06:33:02;;;;;;;;;;;16.60;57.10;;;;;;10377090;28;89135;-71
2023/03/15 06:38:03;;;;;;;;;;;16.60;57.70;;;;;;10376586;28;89774;-72
2023/03/15 06:43:05;;;;;;;;;;;16.60;57.10;;;;;;10375477;28;90237;-72
2023/03/15 06:48:07;;;;;;;;;;;16.60;56.90;;;;;;10367422;28;91186;-71
2023/03/15 06:53:09;;;;;;;;;;;16.60;56.80;;;;;;10366490;28;89324;-71
2023/03/15 06:58:11;;;;;;;;;;;16.60;56.80;;;;;;10356936;28;90036;-71
2023/03/15 07:03:13;;;;;;;;;;;16.60;56.80;;;;;;10374155;28;88616;-71
2023/03/15 07:08:15;;;;;;;;;;;16.60;56.70;;;;;;10374741;28;88922;-71
2023/03/15 07:13:17;;;;;;;;;;;16.60;56.60;;;;;;10358499;28;89275;-71
2023/03/15 07:18:19;;;;;;;;;;;16.60;56.60;;;;;;10375999;28;87884;-70
2023/03/15 07:23:21;;;;;;;;;;;16.60;56.60;;;;;;10374102;28;88381;-71
2023/03/15 07:28:23;;;;;;;;;;;16.50;56.80;;;;;;10376327;28;88756;-70
2023/03/15 07:33:25;;;;;;;;;;;16.50;56.70;;;;;;10373738;28;90106;-70
2023/03/15 07:38:30;;;;;;;;;;;16.50;56.70;;;;;;10375141;28;89510;-70
2023/03/15 07:43:32;;;;;;;;;;;16.40;56.70;;;;;;10373949;28;89928;-71
2023/03/15 07:48:33;;;;;;;;;;;16.40;56.70;;;;;;10374717;28;89939;-72
2023/03/15 07:53:35;;;;;;;;;;;16.40;56.60;;;;;;10374994;28;89048;-71
2023/03/15 07:58:37;;;;;;;;;;;16.30;56.60;;;;;;10373890;28;89780;-71
2023/03/15 08:03:38;;;;;;;;;;;16.30;56.60;;;;;;10373910;28;89240;-72
2023/03/15 08:08:40;;;;;;;;;;;16.30;56.60;;;;;;10375176;28;89358;-71
2023/03/15 08:13:42;;;;;;;;;;;16.30;56.60;;;;;;10375057;28;89043;-71
2023/03/15 08:18:44;;;;;;;;;;;16.30;56.70;;;;;;10381522;28;89060;-71
2023/03/15 08:23:45;;;;;;;;;;;16.30;56.60;;;;;;10379910;28;90462;-71
2023/03/15 08:28:47;;;;;;;;;;;16.20;56.60;;;;;;10361871;28;89091;-71
2023/03/15 08:33:49;;;;;;;;;;;16.20;56.60;;;;;;10380114;28;89072;-71
2023/03/15 08:38:51;;;;;;;;;;;16.20;56.60;;;;;;10380577;28;88434;-71
2023/03/15 08:43:52;;;;;;;;;;;16.20;56.60;;;;;;10379522;28;88133;-71
2023/03/15 08:48:54;;;;;;;;;;;16.20;56.70;;;;;;10378825;28;89013;-70
2023/03/15 08:53:56;;;;;;;;;;;16.10;57.70;;;;;;10380186;28;88479;-70
2023/03/15 08:58:58;;;;;;;;;;;16.10;56.70;;;;;;10379955;28;88423;-70
2023/03/15 09:04:00;;;;;;;;;;;16.10;56.80;;;;;;10379014;28;89153;-70
2023/03/15 09:09:02;;;;;;;;;;;16.10;56.70;;;;;;10361334;28;88225;-70
2023/03/15 09:14:04;;;;;;;;;;;16.10;56.70;;;;;;10378236;28;88989;-70
2023/03/15 09:19:05;;;;;;;;;;;16.20;56.70;;;;;;10378603;28;88922;-71
2023/03/15 09:24:07;;;;;;;;;;;16.20;56.70;;;;;;10378396;28;89813;-70
2023/03/15 09:29:09;;;;;;;;;;;16.20;56.70;;;;;;10378507;28;89852;-70
2023/03/15 09:34:11;;;;;;;;;;;16.20;56.60;;;;;;10378108;28;88951;-71
2023/03/15 09:39:13;;;;;;;;;;;16.30;56.60;;;;;;10378609;28;89544;-70
2023/03/15 09:44:21;;;;;;;;;;;16.40;56.40;;;;;;10378049;28;89221;-70
2023/03/15 09:49:42;;;;;;;;;;;16.50;56.20;;;;;;10378371;28;88034;-70
2023/03/15 09:54:45;;;;;;;;;;;16.50;56.00;;;;;;10378168;28;88135;-70
2023/03/15 09:59:49;;;;;;;;;;;16.60;55.90;;;;;;10378280;28;89076;-71
2023/03/15 10:04:55;;;;;;;;;;;16.50;55.80;;;;;;10376154;28;90802;-71
2023/03/15 10:09:57;;;;;;;;;;;16.50;55.90;;;;;;10358582;28;89198;-71
2023/03/15 10:14:59;;;;;;;;;;;16.50;55.80;;;;;;10377639;28;89055;-71
2023/03/15 10:20:11;;;;;;;;;;;16.50;55.90;;;;;;10376215;28;90080;-71
2023/03/15 10:25:15;;;;;;;;;;;16.40;56.00;;;;;;10359408;28;88553;-70
2023/03/15 10:30:20;;;;;;;;;;;16.40;55.90;;;;;;10375772;28;89112;-71
2023/03/15 10:35:22;;;;;;;;;;;16.40;55.90;;;;;;10357760;28;88214;-71
2023/03/15 10:40:43;;;;;;;;;;;16.40;55.90;;;;;;10359249;28;88975;-71
2023/03/15 10:45:46;;;;;;;;;;;16.50;56.00;;;;;;10377178;28;88175;-71
2023/03/15 10:50:49;;;;;;;;;;;16.50;56.00;;;;;;10376241;28;89466;-72
2023/03/15 10:55:59;;;;;;;;;;;16.50;55.90;;;;;;10374830;28;90961;-71
2023/03/15 11:01:06;;;;;;;;;;;16.60;55.80;;;;;;10375564;28;88933;-71
2023/03/15 11:06:17;;;;;;;;;;;16.60;55.80;;;;;;10374668;28;89191;-71
2023/03/15 11:11:20;;;;;;;;;;;16.60;55.80;;;;;;10375658;28;89120;-71
2023/03/15 11:16:22;;;;;;;;;;;16.60;55.70;;;;;;10376179;28;90011;-71
2023/03/15 11:21:34;;;;;;;;;;;16.60;55.50;;;;;;10375519;28;88994;-71
2023/03/15 11:26:37;;;;;;;;;;;16.70;55.60;;;;;;10356891;28;90160;-70
2023/03/15 11:31:39;;;;;;;;;;;16.60;55.50;;;;;;10375730;28;88573;-71
2023/03/15 11:36:43;;;;;;;;;;;16.60;55.40;;;;;;10375946;28;90032;-71
2023/03/15 11:41:50;;;;;;;;;;;16.60;55.40;;;;;;10375441;28;90188;-71
2023/03/15 11:46:56;;;;;;;;;;;16.60;55.30;;;;;;10374325;28;89786;-71
2023/03/15 11:51:58;;;;;;;;;;;16.60;55.30;;;;;;10381231;28;89338;-71
2023/03/15 11:57:02;;;;;;;;;;;16.60;55.40;;;;;;10380187;28;89031;-69
2023/03/15 12:02:09;;;;;;;;;;;16.60;55.30;;;;;;10379453;28;90152;-71
2023/03/15 12:07:17;;;;;;;;;;;16.60;55.60;;;;;;10378997;28;88482;-72
2023/03/15 12:12:25;;;;;;;;;;;16.60;55.80;;;;;;10380405;28;88474;-74
2023/03/15 12:17:27;;;;;;;;;;;16.70;57.50;;;;;;10378644;28;89138;-73
2023/03/15 12:22:32;;;;;;;;;;;16.90;57.30;;;;;;10379453;28;88483;-73
2023/03/15 12:27:34;;;;;;;;;;;17.10;56.60;;;;;;10378382;28;88605;-74
2023/03/15 12:32:44;;;;;;;;;;;17.30;56.20;;;;;;10378079;28;88089;-74
2023/03/15 12:37:47;;;;;;;;;;;17.50;55.80;;;;;;10377612;28;90013;-72
2023/03/15 12:42:49;;;;;;;;;;;17.60;55.80;;;;;;10360576;28;88982;-71
2023/03/15 12:47:50;;;;;;;;;;;17.80;56.60;;;;;;10377699;28;89224;-69
2023/03/15 12:52:58;;;;;;;;;;;17.90;56.00;;;;;;10379512;28;90008;-69
2023/03/15 12:58:01;;;;;;;;;;;18.00;55.60;;;;;;10378292;28;88321;-70
2023/03/15 13:03:04;;;;;;;;;;;18.10;55.50;;;;;;10360049;28;89777;-71
2023/03/15 13:08:20;;;;;;;;;;;18.10;55.40;;;;;;10360723;28;89152;-70
2023/03/15 13:13:40;;;;;;;;;;;18.10;55.50;;;;;;10379593;28;88545;-71
2023/03/15 13:18:53;;;;;;;;;;;18.00;55.60;;;;;;10379212;28;88206;-71
2023/03/15 13:23:56;;;;;;;;;;;18.00;55.70;;;;;;10378818;28;89678;-71
2023/03/15 13:29:10;;;;;;;;;;;18.00;55.80;;;;;;10377951;28;90387;-70
2023/03/15 13:34:18;;;;;;;;;;;18.00;56.10;;;;;;10375949;28;90207;-71
2023/03/15 13:39:24;;;;;;;;;;;18.00;56.20;;;;;;10377687;28;89109;-70
2023/03/15 13:44:26;;;;;;;;;;;18.00;56.50;;;;;;10376798;28;89398;-69
2023/03/15 13:49:29;;;;;;;;;;;18.00;56.70;;;;;;10376257;28;90427;-70
2023/03/15 13:54:32;;;;;;;;;;;18.00;56.70;;;;;;10376370;28;88588;-71
2023/03/15 13:59:36;;;;;;;;;;;18.00;56.70;;;;;;10376435;28;88717;-71
2023/03/15 14:04:41;;;;;;;;;;;18.00;57.10;;;;;;10377185;28;89255;-70
2023/03/15 14:09:43;;;;;;;;;;;18.00;57.10;;;;;;10376458;28;88608;-72
2023/03/15 14:14:48;;;;;;;;;;;18.00;57.10;;;;;;10376486;28;91107;-71
2023/03/15 14:19:52;;;;;;;;;;;18.00;57.30;;;;;;10375442;28;90913;-71
2023/03/15 14:24:54;;;;;;;;;;;18.00;57.20;;;;;;10357375;28;89930;-71
2023/03/15 14:29:57;;;;;;;;;;;18.00;57.40;;;;;;10338301;28;89107;-70
2023/03/15 14:34:59;;;;;;;;;;;18.00;57.60;;;;;;10334094;28;89981;-71
2023/03/15 14:40:20;;;;;;;;;;;18.00;57.70;;;;;;10333321;28;89083;-71
2023/03/15 14:45:21;;;;;;;;;;;18.00;57.80;;;;;;10335235;28;90411;-71
2023/03/15 14:50:25;;;;;;;;;;;17.90;58.90;;;;;;10356664;28;88928;-72
2023/03/15 14:55:33;;;;;;;;;;;17.90;58.60;;;;;;10377042;28;88256;-71
2023/03/15 15:00:35;;;;;;;;;;;17.90;58.50;;;;;;10375685;28;90127;-73
2023/03/15 15:05:36;;;;;;;;;;;17.90;58.30;;;;;;10375365;28;89208;-72
2023/03/15 15:10:39;;;;;;;;;;;17.90;58.20;;;;;;10356657;28;89934;-72
2023/03/15 15:15:41;;;;;;;;;;;17.90;58.20;;;;;;10375644;28;89838;-72
2023/03/15 15:20:58;;;;;;;;;;;17.80;58.10;;;;;;10358783;28;88360;-72
2023/03/15 15:26:03;;;;;;;;;;;17.80;58.10;;;;;;10373467;28;88982;-72
2023/03/15 15:31:05;;;;;;;;;;;17.80;58.00;;;;;;10374031;28;89038;-71
2023/03/15 15:36:16;;;;;;;;;;;17.80;58.00;;;;;;10374129;28;89996;-72
2023/03/15 15:41:22;;;;;;;;;;;17.80;58.00;;;;;;10374825;28;89140;-71
2023/03/15 15:46:24;;;;;;;;;;;17.80;58.00;;;;;;10375070;28;88334;-71
2023/03/15 15:51:27;;;;;;;;;;;17.70;58.00;;;;;;10373193;28;89056;-73
2023/03/15 15:56:33;;;;;;;;;;;17.70;58.10;;;;;;10373682;28;89980;-72
2023/03/15 16:01:35;;;;;;;;;;;17.80;58.00;;;;;;10372235;28;89977;-72
2023/03/15 16:06:50;;;;;;;;;;;17.80;58.00;;;;;;10372980;28;88561;-72
2023/03/15 16:11:52;;;;;;;;;;;17.80;57.90;;;;;;10373577;28;89047;-72
2023/03/15 16:16:53;;;;;;;;;;;17.70;57.90;;;;;;10372760;28;89774;-72
2023/03/15 16:21:55;;;;;;;;;;;17.70;58.90;;;;;;10355596;28;89383;-72
2023/03/15 16:26:59;;;;;;;;;;;17.70;57.90;;;;;;10372928;28;89628;-72
2023/03/15 16:32:00;;;;;;;;;;;17.80;57.80;;;;;;10373099;28;88891;-71
2023/03/15 16:37:23;;;;;;;;;;;17.80;57.80;;;;;;10379180;28;88363;-71
2023/03/15 16:42:25;;;;;;;;;;;17.70;57.80;;;;;;10379001;28;90060;-70
2023/03/15 16:47:27;;;;;;;;;;;17.70;58.10;;;;;;10363018;28;89082;-69
2023/03/15 16:52:29;;;;;;;;;;;17.80;57.90;;;;;;10378312;28;90670;-69
2023/03/15 16:57:31;;;;;;;;;;;17.80;57.70;;;;;;10379646;28;88960;-69
2023/03/15 17:02:33;;;;;;;;;;;17.80;57.80;;;;;;10379267;28;90053;-69
2023/03/15 17:07:36;;;;;;;;;;;17.80;58.40;;;;;;10377556;28;89030;-70
2023/03/15 17:12:38;;;;;;;;;;;17.80;58.80;;;;;;10378460;28;89758;-69
2023/03/15 17:17:40;;;;;;;;;;;17.90;58.50;;;;;;10378531;28;89087;-72
2023/03/15 17:22:42;;;;;;;;;;;17.90;58.50;;;;;;10360513;28;90210;-71
2023/03/15 17:27:45;;;;;;;;;;;18.00;58.00;;;;;;10379183;28;88288;-71
2023/03/15 17:32:46;;;;;;;;;;;18.10;57.70;;;;;;10361221;28;89421;-71
2023/03/15 17:37:49;;;;;;;;;;;18.10;57.50;;;;;;10378031;28;90173;-72
2023/03/15 17:42:51;;;;;;;;;;;18.10;57.50;;;;;;10376202;28;90761;-71
2023/03/15 17:47:53;;;;;;;;;;;18.10;57.40;;;;;;10376620;28;88715;-71
2023/03/15 17:52:56;;;;;;;;;;;18.10;57.40;;;;;;10376974;28;88660;-72
2023/03/15 17:57:58;;;;;;;;;;;18.20;57.30;;;;;;10360051;28;89713;-72
2023/03/15 18:02:59;;;;;;;;;;;18.30;57.10;;;;;;10376121;28;89161;-71
2023/03/15 18:08:02;;;;;;;;;;;18.40;57.30;;;;;;10376125;28;88106;-71
2023/03/15 18:13:04;;;;;;;;;;;18.40;57.70;;;;;;10377249;28;89979;-72
2023/03/15 18:18:06;;;;;;;;;;;18.40;57.60;;;;;;10374624;28;89401;-72
2023/03/15 18:23:11;;;;;;;;;;;18.50;57.50;;;;;;10370669;28;89123;-72
2023/03/15 18:28:12;;;;;;;;;;;18.50;57.40;;;;;;10353697;28;89095;-70
2023/03/15 18:33:14;;;;;;;;;;;18.40;57.30;;;;;;10372277;28;90254;-72
2023/03/15 18:38:16;;;;;;;;;;;18.40;57.50;;;;;;10357111;28;89280;-72
2023/03/15 18:43:18;;;;;;;;;;;18.40;57.50;;;;;;10357163;28;90054;-72
2023/03/15 18:48:19;;;;;;;;;;;18.40;57.60;;;;;;10374532;28;89080;-71
2023/03/15 18:53:34;;;;;;;;;;;18.40;57.30;;;;;;10375014;28;89400;-72
2023/03/15 18:58:36;;;;;;;;;;;18.40;57.30;;;;;;10374783;28;90062;-73
2023/03/15 19:03:38;;;;;;;;;;;18.30;57.40;;;;;;10375944;28;90243;-73
2023/03/15 19:08:40;;;;;;;;;;;18.30;57.40;;;;;;10358046;28;88070;-72
2023/03/15 19:13:42;;;;;;;;;;;18.50;57.20;;;;;;10373623;28;89944;-73
2023/03/15 19:18:43;;;;;;;;;;;18.50;56.90;;;;;;10372242;28;89770;-73
2023/03/15 19:23:47;;;;;;;;;;;18.50;57.00;;;;;;10372861;28;110250;-73
2023/03/15 19:28:49;;;;;;;;;;;18.50;57.10;;;;;;10355876;28;88618;-74
2023/03/15 19:33:51;;;;;;;;;;;18.50;57.30;;;;;;10373612;28;89066;-73
2023/03/15 19:38:52;;;;;;;;;;;18.50;57.40;;;;;;10372491;28;88874;-73
2023/03/15 19:43:54;;;;;;;;;;;18.50;57.50;;;;;;10371971;28;89036;-72
2023/03/15 19:48:55;;;;;;;;;;;18.50;57.70;;;;;;10373888;28;89226;-74
2023/03/15 19:53:57;;;;;;;;;;;18.50;57.80;;;;;;10374191;28;89740;-74
2023/03/15 19:58:59;;;;;;;;;;;18.40;57.80;;;;;;10355502;28;88445;-74
2023/03/15 20:04:01;;;;;;;;;;;18.40;58.90;;;;;;10373495;28;88297;-74
2023/03/15 20:09:04;;;;;;;;;;;18.40;57.90;;;;;;10374958;28;89873;-73
2023/03/15 20:14:05;;;;;;;;;;;18.40;57.50;;;;;;10380162;28;91211;-72
2023/03/15 20:19:07;;;;;;;;;;;18.40;57.30;;;;;;10379673;28;88290;-73
2023/03/15 20:24:09;;;;;;;;;;;18.30;57.00;;;;;;10379478;28;88047;-72
2023/03/15 20:29:10;;;;;;;;;;;18.30;57.00;;;;;;10380246;28;89467;-73
2023/03/15 20:34:12;;;;;;;;;;;18.30;56.70;;;;;;10380074;28;89951;-72
2023/03/15 20:39:14;;;;;;;;;;;18.30;56.50;;;;;;10379240;28;89975;-73
2023/03/15 20:44:16;;;;;;;;;;;18.30;56.30;;;;;;10361095;28;88791;-72
2023/03/15 20:49:18;;;;;;;;;;;18.20;56.10;;;;;;10380644;28;88056;-73
2023/03/15 20:54:20;;;;;;;;;;;18.10;56.10;;;;;;10379220;28;90210;-73
2023/03/15 20:59:21;;;;;;;;;;;18.10;56.10;;;;;;10361768;28;89692;-72
2023/03/15 21:04:24;;;;;;;;;;;18.00;56.10;;;;;;10378034;28;90560;-73
2023/03/15 21:09:26;;;;;;;;;;;17.90;56.00;;;;;;10379143;28;88861;-73
2023/03/15 21:14:28;;;;;;;;;;;17.90;56.00;;;;;;10379165;28;89333;-73
2023/03/15 21:19:30;;;;;;;;;;;17.80;56.00;;;;;;10378513;28;88562;-72
2023/03/15 21:24:34;;;;;;;;;;;17.80;56.00;;;;;;10379013;28;88783;-72
2023/03/15 21:29:43;;;;;;;;;;;17.70;55.90;;;;;;10378274;28;88861;-72
2023/03/15 21:34:45;;;;;;;;;;;17.70;55.90;;;;;;10361370;28;90825;-72
2023/03/15 21:39:47;;;;;;;;;;;17.60;55.90;;;;;;10393655;28;89053;-72
2023/03/15 21:44:49;;;;;;;;;;;17.50;55.80;;;;;;10360171;28;88902;-72
2023/03/15 21:49:53;;;;;;;;;;;17.50;55.90;;;;;;10378221;28;89173;-72
2023/03/15 21:54:54;;;;;;;;;;;17.50;55.80;;;;;;10377085;28;89750;-72
2023/03/15 21:59:56;;;;;;;;;;;17.40;55.70;;;;;;10376949;28;89595;-72
2023/03/15 22:04:58;;;;;;;;;;;17.40;55.70;;;;;;10376974;28;89197;-72
2023/03/15 22:10:00;;;;;;;;;;;17.40;55.60;;;;;;10376847;28;88994;-72
2023/03/15 22:15:02;;;;;;;;;;;17.30;55.60;;;;;;10377241;28;90028;-72
2023/03/15 22:20:09;;;;;;;;;;;17.30;55.50;;;;;;10376102;28;89605;-72
2023/03/15 22:25:10;;;;;;;;;;;17.30;55.70;;;;;;10375333;28;88901;-72
2023/03/15 22:30:13;;;;;;;;;;;17.20;55.60;;;;;;10360699;28;90545;-72
2023/03/15 22:35:15;;;;;;;;;;;17.20;55.60;;;;;;10372949;28;88534;-72
2023/03/15 22:40:17;;;;;;;;;;;17.20;55.60;;;;;;10376185;28;90106;-72
2023/03/15 22:45:19;;;;;;;;;;;17.20;55.60;;;;;;10374567;28;89602;-73
2023/03/15 22:50:21;;;;;;;;;;;17.10;55.60;;;;;;10375051;28;89417;-73
2023/03/15 22:55:23;;;;;;;;;;;17.10;55.60;;;;;;10375411;28;89026;-72
2023/03/15 23:00:25;;;;;;;;;;;17.10;55.70;;;;;;10376270;28;89962;-72
2023/03/15 23:05:27;;;;;;;;;;;17.10;55.80;;;;;;10376282;28;90193;-71
2023/03/15 23:10:30;;;;;;;;;;;17.10;55.80;;;;;;10356945;28;88982;-72
2023/03/15 23:15:32;;;;;;;;;;;17.00;55.60;;;;;;10375431;28;89016;-72
2023/03/15 23:20:34;;;;;;;;;;;17.00;55.50;;;;;;10375821;28;87951;-72
2023/03/15 23:25:37;;;;;;;;;;;17.00;55.50;;;;;;10356613;28;89288;-72
2023/03/15 23:30:39;;;;;;;;;;;16.90;55.60;;;;;;10374656;28;90230;-72
2023/03/15 23:35:41;;;;;;;;;;;16.90;55.50;;;;;;10372606;28;89817;-72
2023/03/15 23:40:43;;;;;;;;;;;16.90;55.50;;;;;;10374611;28;88963;-72
2023/03/15 23:45:45;;;;;;;;;;;16.90;55.40;;;;;;10379399;28;91156;-72
2023/03/15 23:50:52;;;;;;;;;;;16.90;55.50;;;;;;10375481;28;89504;-72
2023/03/15 23:55:53;;;;;;;;;;;16.80;55.40;;;;;;10381283;28;89047;-71
